Time;durP1;ratioP1;P1;durP2;ratioP2;P2;SDS_P1;SDS_P2;PMS_P1;PMS_P2;Temp;Humidity;BMP_temperature;BMP_pressure;BME280_temperature;BME280_humidity;BME280_pressure;Samples;Min_cycle;Max_cycle;Signal;HPM_P1;HPM_P2
2022/01/02 00:02:10;;;;;;;7.83;5.20;;;20.60;71.70;;;;;;5104154;28;20440;-81
2022/01/02 00:04:38;;;;;;;8.67;4.73;;;20.60;71.70;;;;;;5119634;28;20460;-81
2022/01/02 00:07:06;;;;;;;12.67;5.67;;;20.50;71.50;;;;;;5119472;28;20460;-82
2022/01/02 00:09:35;;;;;;;8.60;5.37;;;20.50;71.50;;;;;;5119986;28;20817;-80
2022/01/02 00:12:09;;;;;;;9.97;5.40;;;20.60;71.60;;;;;;5119591;28;20460;-81
2022/01/02 00:14:38;;;;;;;5.90;4.70;;;20.60;71.40;;;;;;5119384;28;20470;-81
2022/01/02 00:17:07;;;;;;;11.47;5.03;;;20.60;71.20;;;;;;5119412;28;20507;-82
2022/01/02 00:19:38;;;;;;;8.23;5.07;;;20.50;71.90;;;;;;5117717;28;20473;-80
2022/01/02 00:22:13;;;;;;;12.90;5.60;;;20.60;71.40;;;;;;5118220;28;20464;-82
2022/01/02 00:24:42;;;;;;;13.40;4.30;;;20.60;71.20;;;;;;5118307;28;20546;-82
2022/01/02 00:27:11;;;;;;;8.37;5.07;;;20.50;71.00;;;;;;5118859;28;20550;-81
2022/01/02 00:29:39;;;;;;;5.27;4.10;;;20.50;71.10;;;;;;5119516;28;20463;-82
2022/01/02 00:32:08;;;;;;;9.90;4.57;;;20.50;71.00;;;;;;5117665;28;20475;-82
2022/01/02 00:34:35;;;;;;;6.97;5.00;;;20.50;70.90;;;;;;5116311;28;20491;-80
2022/01/02 00:37:04;;;;;;;13.30;5.80;;;20.50;71.00;;;;;;5115155;28;20538;-81
2022/01/02 00:39:32;;;;;;;7.80;4.90;;;20.50;71.20;;;;;;5115845;28;20554;-82
2022/01/02 00:42:04;;;;;;;12.47;5.33;;;20.50;70.90;;;;;;5115860;28;20476;-80
2022/01/02 00:44:40;;;;;;;6.50;4.40;;;20.50;70.90;;;;;;5116255;28;20466;-82
2022/01/02 00:47:08;;;;;;;7.37;4.97;;;20.50;70.90;;;;;;5115828;28;20558;-81
2022/01/02 00:49:40;;;;;;;8.10;5.00;;;20.40;71.00;;;;;;5115594;28;20458;-80
2022/01/02 00:52:12;;;;;;;5.60;4.53;;;20.40;70.90;;;;;;5115958;28;20504;-81
2022/01/02 00:54:44;;;;;;;5.70;5.00;;;20.40;71.00;;;;;;5116014;28;20465;-80
2022/01/02 00:57:15;;;;;;;9.17;5.40;;;20.40;71.20;;;;;;5119527;28;20411;-80
2022/01/02 00:59:55;;;;;;;6.70;4.47;;;20.40;71.10;;;;;;5119654;28;20507;-80
2022/01/02 01:02:28;;;;;;;7.67;5.20;;;20.40;71.00;;;;;;5119332;28;20408;-81
2022/01/02 01:04:57;;;;;;;9.83;5.00;;;20.40;71.20;;;;;;5119428;28;20475;-81
2022/01/02 01:07:24;;;;;;;5.10;4.60;;;20.40;71.20;;;;;;5118990;28;20510;-81
2022/01/02 01:09:53;;;;;;;5.87;4.53;;;20.30;71.00;;;;;;5110766;28;20878;-81
2022/01/02 01:12:24;;;;;;;8.60;4.63;;;20.30;71.00;;;;;;5098526;28;20474;-82
2022/01/02 01:14:53;;;;;;;6.93;4.70;;;20.30;71.00;;;;;;5102955;28;20547;-82
2022/01/02 01:17:21;;;;;;;5.50;4.10;;;20.30;71.20;;;;;;5104063;28;20471;-80
2022/01/02 01:19:51;;;;;;;9.60;4.90;;;20.30;71.00;;;;;;5107912;28;20460;-82
2022/01/02 01:22:19;;;;;;;6.83;4.73;;;20.30;71.10;;;;;;5107955;28;20457;-82
2022/01/02 01:24:47;;;;;;;5.23;4.40;;;20.30;71.10;;;;;;5106937;28;20511;-82
2022/01/02 01:27:15;;;;;;;7.90;4.60;;;20.30;71.10;;;;;;5115803;28;20515;-82
2022/01/02 01:29:43;;;;;;;14.27;4.17;;;20.30;71.10;;;;;;5125662;28;20455;-81
2022/01/02 01:32:12;;;;;;;7.03;4.60;;;20.20;71.00;;;;;;5124544;28;20463;-80
2022/01/02 01:34:40;;;;;;;6.47;4.47;;;20.20;71.20;;;;;;5124168;28;20499;-81
2022/01/02 01:37:08;;;;;;;6.10;4.60;;;20.20;71.20;;;;;;5124998;28;20423;-81
2022/01/02 01:39:36;;;;;;;7.60;4.97;;;20.20;71.20;;;;;;5124565;28;20470;-81
2022/01/02 01:42:10;;;;;;;7.40;4.83;;;20.20;71.10;;;;;;5124718;28;20539;-81
2022/01/02 01:45:03;;;;;;;5.10;4.30;;;20.20;71.20;;;;;;5126024;28;20490;-83
2022/01/02 01:47:32;;;;;;;6.77;4.43;;;20.20;71.30;;;;;;5120047;28;20470;-80
2022/01/02 01:50:00;;;;;;;6.10;3.97;;;20.20;71.40;;;;;;5125571;28;20431;-80
2022/01/02 01:52:28;;;;;;;6.03;4.30;;;20.10;71.10;;;;;;5124686;28;20463;-80
2022/01/02 01:54:56;;;;;;;4.87;4.20;;;20.10;71.20;;;;;;5124907;28;20831;-81
2022/01/02 01:57:24;;;;;;;7.60;4.60;;;20.10;71.20;;;;;;5125241;28;20424;-81
2022/01/02 01:59:52;;;;;;;5.40;4.63;;;20.20;71.30;;;;;;5126072;28;20492;-81
2022/01/02 02:02:20;;;;;;;7.73;4.47;;;20.10;71.10;;;;;;5124414;28;20452;-82
2022/01/02 02:04:49;;;;;;;5.03;4.10;;;20.10;71.20;;;;;;5124585;28;20447;-82
2022/01/02 02:07:26;;;;;;;5.97;4.37;;;20.10;71.40;;;;;;5124572;28;20560;-79
2022/01/02 02:10:11;;;;;;;8.30;4.37;;;20.10;71.30;;;;;;5122700;28;20444;-81
2022/01/02 02:12:39;;;;;;;6.23;3.70;;;20.10;71.40;;;;;;5118548;28;20497;-80
2022/01/02 02:15:10;;;;;;;8.90;4.43;;;20.10;71.40;;;;;;5118859;28;20468;-79
2022/01/02 02:17:51;;;;;;;5.80;4.30;;;20.10;71.20;;;;;;5118282;28;20486;-81
2022/01/02 02:20:21;;;;;;;6.20;4.30;;;20.10;71.10;;;;;;5117835;28;20488;-82
2022/01/02 02:22:52;;;;;;;5.77;4.67;;;20.10;71.20;;;;;;5118620;28;20460;-81
2022/01/02 02:25:21;;;;;;;4.17;3.80;;;20.10;71.90;;;;;;5118012;28;20536;-81
2022/01/02 02:27:50;;;;;;;4.83;4.37;;;20.10;71.30;;;;;;5117644;28;20495;-80
2022/01/02 02:30:18;;;;;;;5.87;4.03;;;20.10;71.40;;;;;;5106782;28;20488;-80
2022/01/02 02:32:46;;;;;;;5.37;3.70;;;20.10;71.80;;;;;;5097068;28;20447;-80
2022/01/02 02:35:14;;;;;;;4.00;3.70;;;20.10;71.40;;;;;;5096951;28;20525;-82
2022/01/02 02:37:45;;;;;;;9.70;4.07;;;20.10;71.40;;;;;;5096765;28;20446;-80
2022/01/02 02:40:14;;;;;;;4.67;4.00;;;20.10;71.40;;;;;;5097117;28;20517;-81
2022/01/02 02:42:48;;;;;;;6.50;4.27;;;20.10;71.40;;;;;;5096957;28;20443;-81
2022/01/02 02:51:03;;;;;;;4.63;4.23;;;20.10;71.30;;;;;;5117600;28;20526;-81
2022/01/02 02:53:32;;;;;;;4.87;4.37;;;20.00;71.40;;;;;;5117464;28;20454;-81
2022/01/02 02:56:00;;;;;;;4.43;4.03;;;20.00;71.30;;;;;;5117367;28;20870;-81
2022/01/02 02:58:42;;;;;;;4.37;3.97;;;20.00;71.40;;;;;;5117017;28;20898;-81
2022/01/02 03:01:11;;;;;;;4.33;3.70;;;20.00;71.40;;;;;;5117538;28;20443;-81
2022/01/02 03:03:39;;;;;;;4.20;3.70;;;20.00;71.50;;;;;;5116817;28;20515;-81
2022/01/02 03:06:07;;;;;;;5.90;4.57;;;20.00;71.40;;;;;;5117352;28;20484;-81
2022/01/02 03:08:37;;;;;;;5.53;3.97;;;20.00;71.40;;;;;;5117327;28;20487;-81
2022/01/02 03:11:07;;;;;;;8.63;4.40;;;20.00;71.50;;;;;;5117211;28;20527;-81
2022/01/02 03:13:35;;;;;;;4.40;3.83;;;20.00;71.40;;;;;;5116238;28;20526;-81
2022/01/02 03:16:03;;;;;;;4.60;4.10;;;20.00;71.40;;;;;;5116660;28;20466;-81
2022/01/02 03:18:31;;;;;;;5.90;4.20;;;20.00;71.40;;;;;;5115567;28;20436;-80
2022/01/02 03:20:59;;;;;;;6.43;3.93;;;20.00;71.50;;;;;;5116018;28;20534;-81
2022/01/02 03:23:27;;;;;;;5.00;3.60;;;20.00;71.50;;;;;;5110660;28;20508;-80
2022/01/02 03:25:57;;;;;;;5.10;4.30;;;20.00;71.50;;;;;;5116555;28;20559;-80
2022/01/02 03:28:25;;;;;;;4.23;3.20;;;20.00;71.30;;;;;;5116391;28;20464;-80
2022/01/02 03:30:53;;;;;;;3.90;3.57;;;20.00;71.30;;;;;;5116361;28;20430;-80
2022/01/02 03:33:21;;;;;;;4.20;3.80;;;20.00;71.40;;;;;;5116104;28;20527;-81
2022/01/02 03:35:49;;;;;;;5.13;3.70;;;20.00;71.30;;;;;;5116245;28;20543;-81
2022/01/02 03:38:17;;;;;;;3.73;3.43;;;20.00;71.30;;;;;;5115719;28;20535;-81
2022/01/02 03:40:45;;;;;;;5.20;3.57;;;20.00;71.30;;;;;;5115561;28;21025;-81
2022/01/02 03:43:19;;;;;;;4.40;4.00;;;20.00;71.30;;;;;;5107231;28;20536;-80
2022/01/02 03:45:47;;;;;;;5.93;4.40;;;20.00;71.30;;;;;;5095253;28;20471;-80
2022/01/02 03:48:15;;;;;;;4.60;3.50;;;20.00;71.30;;;;;;5094997;28;21014;-81
2022/01/02 03:50:43;;;;;;;5.13;4.13;;;20.00;71.20;;;;;;5095586;28;20492;-81
2022/01/02 03:53:11;;;;;;;6.47;3.80;;;20.00;71.20;;;;;;5095545;28;20472;-81
2022/01/02 03:55:40;;;;;;;5.00;4.17;;;19.90;71.20;;;;;;5108463;28;20539;-78
2022/01/02 03:58:08;;;;;;;4.30;3.50;;;20.00;71.30;;;;;;5115776;28;20432;-79
2022/01/02 04:00:37;;;;;;;5.23;3.50;;;19.90;71.20;;;;;;5116121;28;20543;-79
2022/01/02 04:03:05;;;;;;;5.10;3.87;;;19.90;71.30;;;;;;5115493;28;20464;-79
2022/01/02 04:05:34;;;;;;;4.40;4.00;;;19.90;71.30;;;;;;5115591;28;20460;-79
2022/01/02 04:08:03;;;;;;;3.73;3.43;;;19.90;71.30;;;;;;5115429;28;20535;-79
2022/01/02 04:10:31;;;;;;;4.07;3.53;;;19.90;71.30;;;;;;5115091;28;20511;-78
2022/01/02 04:12:58;;;;;;;6.67;4.03;;;20.00;71.20;;;;;;5115041;28;20527;-79
2022/01/02 04:15:26;;;;;;;6.13;4.07;;;19.90;71.10;;;;;;5115475;28;21039;-79
2022/01/02 04:17:55;;;;;;;4.63;3.90;;;19.90;71.10;;;;;;5115677;28;20460;-79
2022/01/02 04:20:23;;;;;;;4.17;3.70;;;19.90;71.20;;;;;;5116254;28;20530;-79
2022/01/02 04:22:51;;;;;;;5.00;4.10;;;19.90;71.20;;;;;;5115772;28;20526;-79
2022/01/02 04:25:19;;;;;;;4.47;4.07;;;20.00;71.30;;;;;;5115852;28;20515;-80
2022/01/02 04:27:47;;;;;;;4.17;3.80;;;19.90;71.10;;;;;;5114643;28;20495;-79
2022/01/02 04:30:15;;;;;;;4.03;3.57;;;19.90;71.10;;;;;;5115424;28;20530;-78
2022/01/02 04:32:43;;;;;;;5.90;3.80;;;19.90;71.10;;;;;;5115421;28;20440;-79
2022/01/02 04:35:12;;;;;;;4.60;3.90;;;19.90;71.00;;;;;;5115365;28;20450;-80
2022/01/02 04:37:40;;;;;;;4.70;3.73;;;19.90;71.10;;;;;;5115494;28;20517;-79
2022/01/02 04:40:09;;;;;;;6.40;3.80;;;19.90;71.20;;;;;;5115236;28;20475;-80
2022/01/02 04:42:37;;;;;;;6.00;3.77;;;19.90;71.10;;;;;;5115423;28;20490;-80
2022/01/02 04:45:07;;;;;;;6.03;3.90;;;19.90;71.10;;;;;;5114841;28;20499;-80
2022/01/02 04:47:35;;;;;;;5.60;4.03;;;19.90;71.10;;;;;;5115250;28;21044;-80
2022/01/02 04:50:04;;;;;;;8.33;4.20;;;19.90;71.20;;;;;;5115620;28;20530;-80
2022/01/02 04:52:33;;;;;;;3.57;3.27;;;19.90;71.10;;;;;;5115422;28;20459;-81
2022/01/02 04:55:01;;;;;;;7.67;3.77;;;19.90;71.00;;;;;;5115585;28;20484;-80
2022/01/02 04:57:30;;;;;;;4.40;4.00;;;19.90;71.10;;;;;;5115521;28;20446;-80
2022/01/02 04:59:57;;;;;;;3.87;3.30;;;19.90;71.20;;;;;;5115363;28;20535;-80
2022/01/02 05:02:25;;;;;;;5.20;3.80;;;19.80;70.90;;;;;;5106158;28;20511;-80
2022/01/02 05:04:53;;;;;;;5.50;3.83;;;19.80;71.10;;;;;;5115396;28;20476;-81
2022/01/02 05:07:21;;;;;;;6.73;3.97;;;19.80;71.10;;;;;;5110294;28;20507;-80
2022/01/02 05:09:51;;;;;;;5.70;3.40;;;19.90;71.20;;;;;;5114974;28;20447;-80
2022/01/02 05:12:19;;;;;;;4.60;4.00;;;19.90;71.00;;;;;;5115089;28;20476;-80
2022/01/02 05:14:47;;;;;;;6.43;4.03;;;19.90;70.90;;;;;;5115361;28;20558;-79
2022/01/02 05:17:15;;;;;;;4.80;3.90;;;19.90;70.80;;;;;;5104383;28;20995;-80
2022/01/02 05:19:43;;;;;;;3.80;3.37;;;19.90;70.80;;;;;;5094938;28;20425;-80
2022/01/02 05:22:18;;;;;;;4.57;3.80;;;19.90;70.90;;;;;;5094923;28;20494;-80
2022/01/02 05:24:46;;;;;;;3.50;3.10;;;19.80;70.80;;;;;;5095986;28;20521;-80
2022/01/02 05:27:15;;;;;;;5.30;4.07;;;19.80;70.90;;;;;;5094975;28;20476;-80
2022/01/02 05:29:43;;;;;;;3.93;3.53;;;19.90;71.10;;;;;;5094926;28;20568;-80
2022/01/02 05:32:11;;;;;;;4.37;3.47;;;19.90;70.90;;;;;;5095224;28;20483;-80
2022/01/02 05:34:39;;;;;;;6.30;4.23;;;19.80;70.90;;;;;;5114861;28;20645;-80
2022/01/02 05:37:07;;;;;;;4.87;3.80;;;19.80;70.90;;;;;;5115100;28;20463;-80
2022/01/02 05:39:35;;;;;;;5.80;3.73;;;19.80;70.90;;;;;;5115071;28;20428;-80
2022/01/02 05:42:04;;;;;;;3.80;3.50;;;19.80;71.10;;;;;;5118075;28;20534;-80
2022/01/02 05:44:33;;;;;;;7.73;4.00;;;19.80;70.80;;;;;;5118456;28;20530;-81
2022/01/02 05:47:01;;;;;;;4.93;3.53;;;19.80;70.90;;;;;;5119075;28;20456;-81
2022/01/02 05:49:29;;;;;;;6.13;3.30;;;19.80;70.80;;;;;;5118490;28;20479;-81
2022/01/02 05:51:57;;;;;;;3.97;3.67;;;19.90;70.90;;;;;;5118289;28;20485;-82
2022/01/02 05:54:25;;;;;;;4.70;3.37;;;19.90;70.80;;;;;;5121945;28;20529;-81
2022/01/02 05:56:53;;;;;;;3.53;3.23;;;19.80;70.80;;;;;;5123385;28;20439;-81
2022/01/02 05:59:21;;;;;;;4.23;3.83;;;19.90;71.00;;;;;;5120869;28;20530;-81
2022/01/02 06:01:50;;;;;;;4.73;3.50;;;19.90;70.90;;;;;;5118541;28;20443;-81
2022/01/02 06:04:19;;;;;;;3.23;3.03;;;19.80;70.80;;;;;;5117941;28;20494;-81
2022/01/02 06:06:46;;;;;;;4.33;3.13;;;19.90;71.00;;;;;;5118378;28;20458;-81
2022/01/02 06:09:15;;;;;;;4.90;3.20;;;19.90;70.90;;;;;;5118210;28;20496;-82
2022/01/02 06:11:42;;;;;;;4.70;3.20;;;19.90;70.90;;;;;;5118998;28;20452;-81
2022/01/02 06:14:10;;;;;;;3.67;3.37;;;19.90;70.90;;;;;;5117849;28;20546;-81
2022/01/02 06:16:38;;;;;;;4.83;3.33;;;19.80;70.80;;;;;;5118437;28;20463;-81
2022/01/02 06:19:08;;;;;;;3.30;3.00;;;19.90;71.00;;;;;;5117696;28;20424;-81
2022/01/02 06:21:35;;;;;;;4.77;3.10;;;19.90;70.90;;;;;;5118194;28;20464;-81
2022/01/02 06:24:03;;;;;;;4.23;2.93;;;19.90;70.90;;;;;;5117476;28;20444;-82
2022/01/02 06:26:31;;;;;;;4.67;3.40;;;19.90;70.90;;;;;;5112832;28;20511;-81
2022/01/02 06:29:02;;;;;;;5.40;3.60;;;19.90;70.70;;;;;;5117973;28;20558;-82
2022/01/02 06:31:31;;;;;;;5.60;3.77;;;19.80;70.70;;;;;;5117932;28;20448;-81
2022/01/02 06:33:59;;;;;;;5.67;3.53;;;19.90;70.80;;;;;;5117871;28;20435;-81
2022/01/02 06:36:28;;;;;;;4.23;3.27;;;19.90;70.80;;;;;;5117973;28;20464;-81
2022/01/02 06:38:56;;;;;;;6.10;3.33;;;19.90;70.60;;;;;;5117554;28;20527;-81
2022/01/02 06:41:24;;;;;;;3.33;3.13;;;19.90;70.60;;;;;;5117368;28;20428;-81
2022/01/02 06:43:52;;;;;;;6.80;3.53;;;19.90;70.80;;;;;;5116680;28;20447;-81
2022/01/02 06:46:21;;;;;;;5.70;3.67;;;19.90;70.70;;;;;;5117247;28;20629;-81
2022/01/02 06:48:49;;;;;;;4.50;3.37;;;19.90;70.70;;;;;;5117410;28;20489;-81
2022/01/02 06:51:38;;;;;;;5.30;3.53;;;19.90;70.70;;;;;;5117226;28;20951;-80
2022/01/02 06:54:05;;;;;;;4.07;3.47;;;19.90;70.60;;;;;;5117736;28;20481;-80
2022/01/02 06:56:34;;;;;;;3.20;2.90;;;19.90;70.70;;;;;;5117715;28;20527;-80
2022/01/02 06:59:01;;;;;;;7.47;3.30;;;19.90;70.90;;;;;;5117234;28;20440;-80
2022/01/02 07:01:30;;;;;;;4.27;3.33;;;19.90;70.90;;;;;;5114303;28;20486;-80
2022/01/02 07:03:58;;;;;;;4.03;3.50;;;19.90;70.80;;;;;;5117608;28;20987;-80
2022/01/02 07:06:26;;;;;;;5.40;3.00;;;19.80;70.80;;;;;;5110866;27;20447;-81
2022/01/02 07:08:56;;;;;;;4.80;3.80;;;19.90;70.70;;;;;;5112209;28;20464;-80
2022/01/02 07:11:23;;;;;;;3.90;3.10;;;19.90;70.70;;;;;;5116306;28;20511;-80
2022/01/02 07:13:51;;;;;;;3.20;2.90;;;19.90;70.70;;;;;;5116528;28;20535;-80
2022/01/02 07:16:19;;;;;;;5.03;3.23;;;19.90;70.90;;;;;;5116608;28;20954;-80
2022/01/02 07:18:47;;;;;;;5.53;3.63;;;19.90;70.70;;;;;;5117010;28;20451;-79
2022/01/02 07:21:17;;;;;;;4.30;2.80;;;19.90;70.80;;;;;;5116556;28;20519;-80
2022/01/02 07:23:44;;;;;;;3.13;2.90;;;19.90;70.90;;;;;;5117074;28;20433;-80
2022/01/02 07:26:14;;;;;;;5.23;3.30;;;19.90;70.70;;;;;;5117256;28;20451;-80
2022/01/02 07:28:42;;;;;;;3.17;2.87;;;19.90;70.70;;;;;;5117207;28;20464;-79
2022/01/02 07:31:10;;;;;;;3.53;3.23;;;19.90;70.70;;;;;;5116996;28;20535;-79
2022/01/02 07:33:38;;;;;;;3.30;2.77;;;19.90;70.80;;;;;;5116813;28;20440;-79
2022/01/02 07:36:06;;;;;;;5.53;3.10;;;19.90;70.70;;;;;;5115660;28;20462;-79
2022/01/02 07:38:34;;;;;;;5.17;2.57;;;19.90;70.70;;;;;;5116712;28;20462;-79
2022/01/02 07:41:02;;;;;;;10.03;3.70;;;19.90;70.70;;;;;;5116745;28;20436;-79
2022/01/02 07:43:31;;;;;;;6.30;2.90;;;19.90;70.80;;;;;;5115850;28;20436;-80
2022/01/02 07:45:59;;;;;;;4.47;2.83;;;20.00;70.70;;;;;;5115318;28;20447;-78
2022/01/02 07:48:27;;;;;;;3.53;3.23;;;20.00;70.70;;;;;;5115109;28;20436;-78
2022/01/02 07:50:55;;;;;;;7.13;3.07;;;19.90;70.70;;;;;;5115134;28;20562;-78
2022/01/02 07:53:23;;;;;;;5.23;2.90;;;19.90;70.80;;;;;;5108359;28;20460;-78
2022/01/02 07:55:51;;;;;;;6.97;2.97;;;19.90;70.70;;;;;;5095539;28;20460;-78
2022/01/02 07:58:19;;;;;;;4.27;3.30;;;19.90;70.70;;;;;;5095598;28;20532;-79
2022/01/02 08:00:50;;;;;;;2.87;2.67;;;19.90;70.80;;;;;;5102206;28;20512;-79
2022/01/02 08:03:19;;;;;;;6.90;3.10;;;20.00;70.90;;;;;;5116065;28;20435;-79
2022/01/02 08:05:47;;;;;;;6.93;3.03;;;20.00;70.90;;;;;;5116012;28;20450;-79
2022/01/02 08:08:15;;;;;;;3.53;2.93;;;20.00;70.80;;;;;;5116066;28;20511;-79
2022/01/02 08:10:43;;;;;;;4.20;2.90;;;20.00;70.80;;;;;;5116303;28;20550;-79
2022/01/02 08:13:11;;;;;;;3.17;2.70;;;20.00;70.80;;;;;;5109741;28;20460;-79
2022/01/02 08:15:39;;;;;;;4.20;3.20;;;20.00;70.70;;;;;;5115948;28;20481;-79
2022/01/02 08:18:13;;;;;;;5.17;2.97;;;20.00;70.90;;;;;;5116008;28;20482;-79
2022/01/02 08:20:41;;;;;;;5.30;2.97;;;20.00;70.70;;;;;;5116178;28;20475;-79
2022/01/02 08:23:09;;;;;;;9.93;3.47;;;20.00;70.60;;;;;;5115429;28;20519;-79
2022/01/02 08:25:37;;;;;;;9.60;3.33;;;20.00;70.60;;;;;;5101275;28;20482;-80
2022/01/02 08:28:05;;;;;;;6.23;3.10;;;20.00;70.50;;;;;;5115488;28;20478;-80
2022/01/02 08:30:33;;;;;;;3.83;3.00;;;20.00;70.60;;;;;;5115541;28;20499;-80
2022/01/02 08:33:01;;;;;;;3.50;2.70;;;20.00;70.60;;;;;;5114936;28;20424;-79
2022/01/02 08:35:30;;;;;;;3.47;2.80;;;20.00;70.50;;;;;;5115226;28;20430;-79
2022/01/02 08:37:58;;;;;;;6.53;3.20;;;20.00;70.60;;;;;;5114915;28;20981;-79
2022/01/02 08:40:31;;;;;;;9.50;3.10;;;20.10;70.60;;;;;;5115645;28;20427;-80
2022/01/02 08:42:59;;;;;;;4.77;2.77;;;20.00;70.60;;;;;;5115532;28;20472;-80
2022/01/02 08:45:27;;;;;;;5.23;3.27;;;20.10;70.60;;;;;;5115454;28;20494;-80
2022/01/02 08:47:55;;;;;;;4.97;3.17;;;20.10;70.50;;;;;;5111945;28;20597;-80
2022/01/02 08:50:23;;;;;;;4.57;3.10;;;20.10;70.50;;;;;;5115288;28;20460;-80
2022/01/02 08:52:52;;;;;;;6.77;3.60;;;20.10;70.50;;;;;;5115144;28;20471;-80
2022/01/02 08:55:20;;;;;;;10.20;4.03;;;20.00;70.50;;;;;;5114822;28;20551;-80
2022/01/02 08:57:48;;;;;;;5.40;2.93;;;20.00;70.40;;;;;;5115181;28;20471;-80
2022/01/02 09:00:16;;;;;;;4.60;2.67;;;20.10;70.40;;;;;;5115222;28;20849;-80
2022/01/02 09:02:44;;;;;;;4.80;3.20;;;20.00;70.40;;;;;;5115802;28;20527;-80
2022/01/02 09:05:12;;;;;;;4.33;3.30;;;20.10;70.30;;;;;;5106624;28;20485;-79
2022/01/02 09:07:40;;;;;;;4.57;2.90;;;20.10;70.40;;;;;;5095029;28;20527;-79
2022/01/02 09:10:10;;;;;;;6.20;2.63;;;20.10;70.40;;;;;;5094931;28;20496;-79
2022/01/02 09:12:37;;;;;;;5.33;3.00;;;20.10;70.40;;;;;;5094227;28;20519;-79
2022/01/02 09:15:06;;;;;;;11.10;3.50;;;20.00;70.50;;;;;;5095319;28;20536;-80
2022/01/02 09:17:34;;;;;;;4.00;2.73;;;20.00;70.60;;;;;;5099013;28;20467;-79
2022/01/02 09:20:18;;;;;;;3.40;3.00;;;20.00;70.40;;;;;;5101744;28;20530;-79
2022/01/02 09:22:47;;;;;;;4.97;3.07;;;20.10;70.40;;;;;;5111058;28;20515;-79
2022/01/02 09:25:16;;;;;;;4.60;2.90;;;20.10;70.80;;;;;;5111892;28;20456;-80
2022/01/02 09:27:45;;;;;;;7.47;3.07;;;20.00;70.40;;;;;;5120964;28;20448;-80
2022/01/02 09:30:13;;;;;;;6.47;3.50;;;20.10;70.50;;;;;;5125311;28;20464;-80
2022/01/02 09:32:41;;;;;;;5.90;2.93;;;20.10;70.40;;;;;;5122206;28;20428;-80
2022/01/02 09:35:10;;;;;;;4.73;2.80;;;20.00;70.50;;;;;;5117167;28;20480;-80
2022/01/02 09:37:39;;;;;;;3.90;2.90;;;20.00;70.60;;;;;;5125238;28;20452;-80
2022/01/02 09:40:08;;;;;;;3.50;2.97;;;20.00;70.50;;;;;;5125018;28;20468;-80
2022/01/02 09:42:38;;;;;;;5.90;3.53;;;20.00;70.50;;;;;;5106499;28;20455;-81
2022/01/02 09:45:06;;;;;;;12.90;4.40;;;20.00;70.50;;;;;;5103759;28;20459;-80
2022/01/02 09:47:34;;;;;;;11.73;4.20;;;20.20;73.20;;;;;;5101924;28;20433;-80
2022/01/02 09:50:07;;;;;;;15.93;4.50;;;20.40;72.80;;;;;;5101866;28;20421;-81
2022/01/02 09:52:35;;;;;;;5.80;3.53;;;20.40;72.40;;;;;;5102508;28;20437;-79
2022/01/02 09:55:03;;;;;;;6.93;3.97;;;20.40;72.20;;;;;;5119138;28;20468;-79
2022/01/02 09:57:31;;;;;;;6.77;3.80;;;20.30;72.00;;;;;;5123935;28;20466;-80
2022/01/02 10:00:00;;;;;;;4.23;3.70;;;20.30;72.10;;;;;;5123327;28;20523;-80
2022/01/02 10:02:28;;;;;;;5.43;3.50;;;20.20;72.20;;;;;;5122552;28;20407;-80
2022/01/02 10:05:01;;;;;;;8.93;4.20;;;20.20;72.20;;;;;;5119614;28;20449;-79
2022/01/02 10:07:30;;;;;;;5.50;3.60;;;20.20;72.40;;;;;;5112164;28;20443;-79
2022/01/02 10:09:58;;;;;;;17.00;5.27;;;20.20;72.40;;;;;;5122050;28;20436;-80
2022/01/02 10:12:28;;;;;;;18.10;10.50;;;20.20;74.80;;;;;;5115049;28;20453;-83
2022/01/02 10:15:18;;;;;;;27.87;22.67;;;20.50;75.60;;;;;;5120462;28;20473;-83
2022/01/02 10:18:01;;;;;;;41.20;25.50;;;20.70;75.70;;;;;;5121096;28;20427;-83
2022/01/02 10:20:30;;;;;;;48.20;33.77;;;20.50;76.80;;;;;;5121320;28;20424;-86
2022/01/02 10:23:10;;;;;;;34.60;22.83;;;20.80;79.50;;;;;;5121677;28;20467;-83
2022/01/02 10:25:40;;;;;;;34.00;23.93;;;20.60;78.90;;;;;;5106069;28;20458;-83
2022/01/02 10:28:22;;;;;;;32.33;23.63;;;20.70;80.10;;;;;;5110048;28;20525;-82
2022/01/02 10:30:51;;;;;;;29.47;18.03;;;20.60;80.70;;;;;;5118895;28;20455;-83
2022/01/02 10:33:21;;;;;;;36.93;11.30;;;20.70;81.20;;;;;;5110790;28;20430;-82
2022/01/02 10:35:56;;;;;;;25.53;8.40;;;20.60;76.40;;;;;;5116654;28;20460;-81
2022/01/02 10:38:24;;;;;;;15.60;5.70;;;20.50;75.00;;;;;;5117627;28;20470;-82
2022/01/02 10:40:52;;;;;;;22.60;7.00;;;20.10;74.70;;;;;;5117811;28;20464;-81
2022/01/02 10:43:27;;;;;;;11.67;6.17;;;19.90;75.60;;;;;;5105096;28;20477;-85
2022/01/02 10:45:58;;;;;;;21.87;11.53;;;19.80;75.70;;;;;;5097376;28;20448;-82
2022/01/02 10:48:37;;;;;;;19.53;6.60;;;19.70;78.90;;;;;;5115900;28;20531;-83
2022/01/02 10:51:07;;;;;;;17.87;5.03;;;19.60;77.30;;;;;;5121705;28;20495;-81
2022/01/02 10:53:37;;;;;;;12.03;6.80;;;19.60;75.50;;;;;;5120261;28;20429;-82
2022/01/02 10:56:05;;;;;;;14.03;6.40;;;19.70;77.20;;;;;;5120515;28;20459;-81
2022/01/02 10:58:34;;;;;;;18.53;7.63;;;19.40;74.80;;;;;;5120575;28;20432;-82
2022/01/02 11:01:05;;;;;;;18.97;7.10;;;19.30;75.40;;;;;;5120950;28;20442;-81
2022/01/02 11:03:34;;;;;;;12.80;5.80;;;19.20;77.30;;;;;;5114558;28;20456;-80
2022/01/02 11:06:06;;;;;;;13.77;6.83;;;19.10;76.50;;;;;;5120414;28;20466;-80
2022/01/02 11:08:36;;;;;;;23.93;9.03;;;18.90;76.00;;;;;;5119443;28;20460;-82
2022/01/02 11:11:05;;;;;;;10.27;5.13;;;18.90;79.90;;;;;;5113686;28;20965;-81
2022/01/02 11:13:33;;;;;;;15.63;6.13;;;19.30;77.20;;;;;;5121844;28;20432;-82
2022/01/02 11:16:02;;;;;;;9.93;5.17;;;19.30;76.00;;;;;;5122439;28;20464;-81
2022/01/02 11:18:33;;;;;;;12.43;6.53;;;19.00;77.70;;;;;;5119160;28;20421;-81
2022/01/02 11:21:01;;;;;;;17.43;6.80;;;20.10;82.20;;;;;;5118552;28;20529;-83
2022/01/02 11:23:32;;;;;;;19.60;6.37;;;21.10;78.80;;;;;;5118431;28;20963;-82
2022/01/02 11:26:07;;;;;;;6.90;5.50;;;21.80;76.60;;;;;;5118921;28;20556;-83
2022/01/02 11:28:37;;;;;;;10.33;5.07;;;22.20;74.20;;;;;;5120116;28;20550;-82
2022/01/02 11:31:05;;;;;;;11.37;6.13;;;22.50;73.00;;;;;;5119773;28;20447;-83
2022/01/02 11:33:36;;;;;;;13.80;5.30;;;22.80;72.10;;;;;;5101552;28;20432;-83
2022/01/02 11:36:23;;;;;;;9.70;5.30;;;23.00;71.00;;;;;;5108751;28;20454;-83
2022/01/02 11:38:59;;;;;;;11.00;5.67;;;23.20;70.00;;;;;;5119551;28;20954;-85
2022/01/02 11:41:40;;;;;;;15.17;5.13;;;23.30;69.30;;;;;;5121707;28;20419;-82
2022/01/02 11:44:09;;;;;;;8.10;5.00;;;23.30;68.70;;;;;;5116121;28;20483;-79
2022/01/02 11:46:58;;;;;;;25.77;5.90;;;23.30;68.70;;;;;;5117972;28;20460;-79
2022/01/02 11:49:37;;;;;;;12.30;5.63;;;23.30;67.70;;;;;;5102040;28;20468;-80
2022/01/02 11:52:10;;;;;;;14.80;5.03;;;23.30;68.80;;;;;;5111929;28;20558;-80
2022/01/02 11:54:48;;;;;;;15.83;4.93;;;23.30;67.60;;;;;;5106763;28;20524;-80
2022/01/02 11:57:46;;;;;;;18.30;6.03;;;23.30;67.30;;;;;;5116900;28;20410;-84
2022/01/02 12:00:40;;;;;;;11.93;4.60;;;23.20;68.70;;;;;;5119730;28;20490;-81
2022/01/02 12:03:40;;;;;;;9.40;4.53;;;23.20;68.40;;;;;;5118590;28;20497;-81
2022/01/02 12:06:32;;;;;;;8.97;3.97;;;23.40;67.90;;;;;;5115120;28;20414;-82
2022/01/02 12:09:00;;;;;;;17.83;4.20;;;23.50;66.90;;;;;;5119777;28;20458;-83
2022/01/02 12:11:44;;;;;;;9.83;4.00;;;23.60;66.70;;;;;;5115448;28;20475;-85
2022/01/02 12:14:18;;;;;;;10.70;4.10;;;23.70;66.40;;;;;;5117001;28;20498;-84
2022/01/02 12:16:57;;;;;;;10.27;3.90;;;23.80;65.80;;;;;;5106966;28;20452;-84
2022/01/02 12:19:26;;;;;;;7.10;4.03;;;23.80;65.70;;;;;;5116841;28;20428;-82
2022/01/02 12:22:11;;;;;;;7.30;4.30;;;23.80;65.10;;;;;;5098591;28;20437;-82
2022/01/02 12:24:40;;;;;;;12.13;4.47;;;22.30;56.00;;;;;;5095922;28;20544;-82
2022/01/02 12:27:09;;;;;;;6.03;4.10;;;19.40;63.30;;;;;;5096058;28;20464;-85
2022/01/02 12:29:37;;;;;;;8.00;4.90;;;17.70;67.80;;;;;;5094256;28;20433;-84
2022/01/02 12:32:06;;;;;;;10.63;4.10;;;16.50;70.20;;;;;;5117772;28;20559;-81
2022/01/02 12:34:33;;;;;;;11.87;4.50;;;16.70;77.20;;;;;;5115769;28;20459;-80
2022/01/02 12:37:02;;;;;;;10.03;3.50;;;17.90;75.70;;;;;;5116308;28;20514;-80
2022/01/02 12:39:32;;;;;;;11.23;3.40;;;18.80;72.70;;;;;;5116365;28;20463;-81
2022/01/02 12:42:01;;;;;;;6.43;3.20;;;19.40;69.80;;;;;;5116183;28;20463;-81
2022/01/02 12:44:30;;;;;;;7.10;3.47;;;19.90;68.20;;;;;;5116897;28;20481;-79
2022/01/02 12:47:00;;;;;;;11.37;3.27;;;20.20;66.90;;;;;;5117863;28;20428;-81
2022/01/02 12:49:29;;;;;;;5.90;3.27;;;20.50;66.00;;;;;;5112298;28;20441;-81
2022/01/02 12:51:58;;;;;;;7.43;3.30;;;20.60;65.50;;;;;;5120349;28;20559;-80
2022/01/02 12:54:28;;;;;;;4.80;3.27;;;20.80;65.10;;;;;;5124437;28;20551;-81
2022/01/02 12:56:59;;;;;;;5.83;3.10;;;20.80;64.50;;;;;;5124616;27;20492;-80
2022/01/02 12:59:29;;;;;;;8.97;3.07;;;20.90;64.20;;;;;;5125266;28;20483;-82
2022/01/02 13:02:00;;;;;;;6.40;3.40;;;21.00;64.10;;;;;;5125242;27;20420;-82
2022/01/02 13:04:30;;;;;;;4.13;2.73;;;21.00;63.70;;;;;;5122716;27;20455;-81
2022/01/02 13:07:00;;;;;;;6.33;3.40;;;21.00;63.60;;;;;;5120999;28;20483;-81